sensor_id;sensor_type;location;lat;lon;timestamp;temperature;humidity
47765;DHT22;33529;49.242;8.670;2023-04-01T00:01:27;9.40;99.90
47765;DHT22;33529;49.242;8.670;2023-04-01T00:03:54;9.30;99.90
47765;DHT22;33529;49.242;8.670;2023-04-01T00:06:24;9.30;99.90
47765;DHT22;33529;49.242;8.670;2023-04-01T00:08:50;9.30;99.90
47765;DHT22;33529;49.242;8.670;2023-04-01T00:11:18;9.30;99.90
47765;DHT22;33529;49.242;8.670;2023-04-01T00:13:47;9.30;99.90
47765;DHT22;33529;49.242;8.670;2023-04-01T00:16:14;9.20;99.90
47765;DHT22;33529;49.242;8.670;2023-04-01T00:18:49;9.20;99.90
47765;DHT22;33529;49.242;8.670;2023-04-01T00:21:17;9.20;99.90
47765;DHT22;33529;49.242;8.670;2023-04-01T00:23:46;9.20;99.90
47765;DHT22;33529;49.242;8.670;2023-04-01T00:26:13;9.20;99.90
47765;DHT22;33529;49.242;8.670;2023-04-01T00:28:41;9.20;99.90
47765;DHT22;33529;49.242;8.670;2023-04-01T00:31:10;9.20;99.90
47765;DHT22;33529;49.242;8.670;2023-04-01T00:33:38;9.30;99.90
47765;DHT22;33529;49.242;8.670;2023-04-01T00:36:08;9.30;99.90
47765;DHT22;33529;49.242;8.670;2023-04-01T00:38:36;9.30;99.90
47765;DHT22;33529;49.242;8.670;2023-04-01T00:41:04;9.40;99.90
47765;DHT22;33529;49.242;8.670;2023-04-01T00:43:32;9.50;99.90
47765;DHT22;33529;49.242;8.670;2023-04-01T00:45:59;9.50;99.90
47765;DHT22;33529;49.242;8.670;2023-04-01T00:48:35;9.50;99.90
47765;DHT22;33529;49.242;8.670;2023-04-01T00:51:06;9.50;99.90
47765;DHT22;33529;49.242;8.670;2023-04-01T00:53:38;9.50;99.90
47765;DHT22;33529;49.242;8.670;2023-04-01T00:56:14;9.50;99.90
47765;DHT22;33529;49.242;8.670;2023-04-01T00:58:46;9.50;99.90
47765;DHT22;33529;49.242;8.670;2023-04-01T01:01:14;9.50;99.90
47765;DHT22;33529;49.242;8.670;2023-04-01T01:03:42;9.50;99.90
47765;DHT22;33529;49.242;8.670;2023-04-01T01:06:23;9.40;99.90
47765;DHT22;33529;49.242;8.670;2023-04-01T01:09:18;9.40;99.90
47765;DHT22;33529;49.242;8.670;2023-04-01T01:11:55;9.40;99.90
47765;DHT22;33529;49.242;8.670;2023-04-01T01:14:36;9.50;99.90
47765;DHT22;33529;49.242;8.670;2023-04-01T01:25:40;9.40;99.90
47765;DHT22;33529;49.242;8.670;2023-04-01T01:31:42;9.30;99.90
47765;DHT22;33529;49.242;8.670;2023-04-01T01:34:36;9.30;99.90
47765;DHT22;33529;49.242;8.670;2023-04-01T01:37:14;9.30;99.90
47765;DHT22;33529;49.242;8.670;2023-04-01T01:39:45;9.40;99.90
47765;DHT22;33529;49.242;8.670;2023-04-01T01:42:16;9.40;99.90
47765;DHT22;33529;49.242;8.670;2023-04-01T01:44:45;9.40;99.90
47765;DHT22;33529;49.242;8.670;2023-04-01T01:47:14;9.40;99.90
47765;DHT22;33529;49.242;8.670;2023-04-01T01:49:43;9.40;99.90
47765;DHT22;33529;49.242;8.670;2023-04-01T01:52:12;9.50;99.90
47765;DHT22;33529;49.242;8.670;2023-04-01T01:54:54;9.50;99.90
47765;DHT22;33529;49.242;8.670;2023-04-01T01:57:34;9.60;99.90
47765;DHT22;33529;49.242;8.670;2023-04-01T02:00:11;9.50;99.90
47765;DHT22;33529;49.242;8.670;2023-04-01T02:02:45;9.60;99.90
47765;DHT22;33529;49.242;8.670;2023-04-01T02:05:18;9.60;99.90
47765;DHT22;33529;49.242;8.670;2023-04-01T02:08:13;9.60;99.90
47765;DHT22;33529;49.242;8.670;2023-04-01T02:10:48;9.60;99.90
47765;DHT22;33529;49.242;8.670;2023-04-01T02:13:52;9.60;99.90
47765;DHT22;33529;49.242;8.670;2023-04-01T02:16:33;9.60;99.90
47765;DHT22;33529;49.242;8.670;2023-04-01T02:19:03;9.60;99.90
47765;DHT22;33529;49.242;8.670;2023-04-01T02:21:35;9.70;99.90
47765;DHT22;33529;49.242;8.670;2023-04-01T02:24:06;9.60;99.90
47765;DHT22;33529;49.242;8.670;2023-04-01T02:26:34;9.60;99.90
47765;DHT22;33529;49.242;8.670;2023-04-01T02:29:03;9.60;99.90
47765;DHT22;33529;49.242;8.670;2023-04-01T02:31:31;9.60;99.90
47765;DHT22;33529;49.242;8.670;2023-04-01T02:33:59;9.60;99.90
47765;DHT22;33529;49.242;8.670;2023-04-01T02:36:27;9.50;99.90
47765;DHT22;33529;49.242;8.670;2023-04-01T02:38:54;9.50;99.90
47765;DHT22;33529;49.242;8.670;2023-04-01T02:41:22;9.50;99.90
47765;DHT22;33529;49.242;8.670;2023-04-01T02:43:49;9.50;99.90
47765;DHT22;33529;49.242;8.670;2023-04-01T02:46:16;9.40;99.90
47765;DHT22;33529;49.242;8.670;2023-04-01T02:48:46;9.40;99.90
47765;DHT22;33529;49.242;8.670;2023-04-01T02:51:13;9.30;99.90
47765;DHT22;33529;49.242;8.670;2023-04-01T02:53:46;9.30;99.90
47765;DHT22;33529;49.242;8.670;2023-04-01T02:56:13;9.30;99.90
47765;DHT22;33529;49.242;8.670;2023-04-01T02:58:39;9.40;99.90
47765;DHT22;33529;49.242;8.670;2023-04-01T03:01:06;9.40;99.90
47765;DHT22;33529;49.242;8.670;2023-04-01T03:03:34;9.30;99.90
47765;DHT22;33529;49.242;8.670;2023-04-01T03:06:09;9.30;99.90
47765;DHT22;33529;49.242;8.670;2023-04-01T03:08:37;9.30;99.90
47765;DHT22;33529;49.242;8.670;2023-04-01T03:11:06;9.30;99.90
47765;DHT22;33529;49.242;8.670;2023-04-01T03:13:35;9.30;99.90
47765;DHT22;33529;49.242;8.670;2023-04-01T03:16:02;9.20;99.90
47765;DHT22;33529;49.242;8.670;2023-04-01T03:18:29;9.20;99.90
47765;DHT22;33529;49.242;8.670;2023-04-01T03:20:56;9.30;99.90
47765;DHT22;33529;49.242;8.670;2023-04-01T03:23:23;9.30;99.90
47765;DHT22;33529;49.242;8.670;2023-04-01T03:25:51;9.30;99.90
47765;DHT22;33529;49.242;8.670;2023-04-01T03:28:18;9.30;99.90
47765;DHT22;33529;49.242;8.670;2023-04-01T03:30:44;9.30;99.90
47765;DHT22;33529;49.242;8.670;2023-04-01T03:33:11;9.30;99.90
47765;DHT22;33529;49.242;8.670;2023-04-01T03:35:38;9.30;99.90
47765;DHT22;33529;49.242;8.670;2023-04-01T03:38:05;9.30;99.90
47765;DHT22;33529;49.242;8.670;2023-04-01T03:40:32;9.20;99.90
47765;DHT22;33529;49.242;8.670;2023-04-01T03:42:59;9.30;99.90
47765;DHT22;33529;49.242;8.670;2023-04-01T03:45:26;9.30;99.90
47765;DHT22;33529;49.242;8.670;2023-04-01T03:47:53;9.20;99.90
47765;DHT22;33529;49.242;8.670;2023-04-01T03:50:20;9.20;99.90
47765;DHT22;33529;49.242;8.670;2023-04-01T03:52:47;9.20;99.90
47765;DHT22;33529;49.242;8.670;2023-04-01T03:55:14;9.20;99.90
47765;DHT22;33529;49.242;8.670;2023-04-01T03:57:42;9.20;99.90
47765;DHT22;33529;49.242;8.670;2023-04-01T04:00:16;9.20;99.90
47765;DHT22;33529;49.242;8.670;2023-04-01T04:02:46;9.20;99.90
47765;DHT22;33529;49.242;8.670;2023-04-01T04:05:18;9.10;99.90
47765;DHT22;33529;49.242;8.670;2023-04-01T04:07:45;9.10;99.90
47765;DHT22;33529;49.242;8.670;2023-04-01T04:10:15;9.10;99.90
47765;DHT22;33529;49.242;8.670;2023-04-01T04:12:41;9.10;99.90
47765;DHT22;33529;49.242;8.670;2023-04-01T04:15:09;9.10;99.90
47765;DHT22;33529;49.242;8.670;2023-04-01T04:17:37;9.00;99.90
47765;DHT22;33529;49.242;8.670;2023-04-01T04:20:04;8.80;99.90
47765;DHT22;33529;49.242;8.670;2023-04-01T04:22:31;8.80;99.90
47765;DHT22;33529;49.242;8.670;2023-04-01T04:24:58;8.70;99.90
47765;DHT22;33529;49.242;8.670;2023-04-01T04:27:25;8.70;99.90
47765;DHT22;33529;49.242;8.670;2023-04-01T04:30:07;8.60;99.90
47765;DHT22;33529;49.242;8.670;2023-04-01T04:32:35;8.60;99.90
47765;DHT22;33529;49.242;8.670;2023-04-01T04:35:03;8.60;99.90
47765;DHT22;33529;49.242;8.670;2023-04-01T04:37:30;8.60;99.90
47765;DHT22;33529;49.242;8.670;2023-04-01T04:39:59;8.60;99.90
47765;DHT22;33529;49.242;8.670;2023-04-01T04:42:27;8.50;99.90
47765;DHT22;33529;49.242;8.670;2023-04-01T04:44:59;8.60;99.90
47765;DHT22;33529;49.242;8.670;2023-04-01T04:47:27;8.60;99.90
47765;DHT22;33529;49.242;8.670;2023-04-01T04:49:53;8.60;99.90
47765;DHT22;33529;49.242;8.670;2023-04-01T04:52:20;8.70;99.90
47765;DHT22;33529;49.242;8.670;2023-04-01T04:54:47;8.70;99.90
47765;DHT22;33529;49.242;8.670;2023-04-01T04:57:14;8.70;99.90
47765;DHT22;33529;49.242;8.670;2023-04-01T04:59:51;8.80;99.90
47765;DHT22;33529;49.242;8.670;2023-04-01T05:02:28;8.80;99.90
47765;DHT22;33529;49.242;8.670;2023-04-01T05:04:55;8.80;99.90
47765;DHT22;33529;49.242;8.670;2023-04-01T05:07:21;8.80;99.90
47765;DHT22;33529;49.242;8.670;2023-04-01T05:09:48;8.90;99.90
47765;DHT22;33529;49.242;8.670;2023-04-01T05:12:15;8.90;99.90
47765;DHT22;33529;49.242;8.670;2023-04-01T05:15:08;9.00;99.90
47765;DHT22;33529;49.242;8.670;2023-04-01T05:17:35;9.10;99.90
47765;DHT22;33529;49.242;8.670;2023-04-01T05:20:05;9.10;99.90
47765;DHT22;33529;49.242;8.670;2023-04-01T05:22:32;9.20;99.90
47765;DHT22;33529;49.242;8.670;2023-04-01T05:24:59;9.20;99.90
47765;DHT22;33529;49.242;8.670;2023-04-01T05:27:27;9.20;99.90
47765;DHT22;33529;49.242;8.670;2023-04-01T05:29:56;9.30;99.90
47765;DHT22;33529;49.242;8.670;2023-04-01T05:32:49;9.30;99.90
47765;DHT22;33529;49.242;8.670;2023-04-01T05:35:16;9.20;99.90
47765;DHT22;33529;49.242;8.670;2023-04-01T05:37:43;9.20;99.90
47765;DHT22;33529;49.242;8.670;2023-04-01T05:40:10;9.30;99.90
47765;DHT22;33529;49.242;8.670;2023-04-01T05:42:37;9.30;99.90
47765;DHT22;33529;49.242;8.670;2023-04-01T05:45:05;9.30;99.90
47765;DHT22;33529;49.242;8.670;2023-04-01T05:47:51;9.30;99.90
47765;DHT22;33529;49.242;8.670;2023-04-01T05:50:18;9.40;99.90
47765;DHT22;33529;49.242;8.670;2023-04-01T05:52:45;9.30;99.90
47765;DHT22;33529;49.242;8.670;2023-04-01T05:55:12;9.30;99.90
47765;DHT22;33529;49.242;8.670;2023-04-01T05:57:39;9.40;99.90
47765;DHT22;33529;49.242;8.670;2023-04-01T06:00:06;9.40;99.90
47765;DHT22;33529;49.242;8.670;2023-04-01T06:02:38;9.40;99.90
47765;DHT22;33529;49.242;8.670;2023-04-01T06:05:22;9.40;99.90
47765;DHT22;33529;49.242;8.670;2023-04-01T06:07:58;9.40;99.90
47765;DHT22;33529;49.242;8.670;2023-04-01T06:16:10;9.30;99.90
47765;DHT22;33529;49.242;8.670;2023-04-01T06:18:58;9.30;99.90
47765;DHT22;33529;49.242;8.670;2023-04-01T06:24:37;9.30;99.90
47765;DHT22;33529;49.242;8.670;2023-04-01T06:33:00;9.30;99.90
47765;DHT22;33529;49.242;8.670;2023-04-01T06:35:44;9.30;99.90
47765;DHT22;33529;49.242;8.670;2023-04-01T06:46:48;9.20;99.90
47765;DHT22;33529;49.242;8.670;2023-04-01T06:49:58;9.20;99.90
47765;DHT22;33529;49.242;8.670;2023-04-01T06:56:04;9.20;99.90
47765;DHT22;33529;49.242;8.670;2023-04-01T06:58:49;9.10;99.90
47765;DHT22;33529;49.242;8.670;2023-04-01T07:01:47;9.00;99.90
47765;DHT22;33529;49.242;8.670;2023-04-01T07:04:33;9.10;99.90
47765;DHT22;33529;49.242;8.670;2023-04-01T07:07:05;9.10;99.90
47765;DHT22;33529;49.242;8.670;2023-04-01T07:09:52;9.10;99.90
47765;DHT22;33529;49.242;8.670;2023-04-01T07:12:49;9.10;99.90
47765;DHT22;33529;49.242;8.670;2023-04-01T07:15:40;9.00;99.90
47765;DHT22;33529;49.242;8.670;2023-04-01T07:18:25;9.00;99.90
47765;DHT22;33529;49.242;8.670;2023-04-01T07:20:55;9.00;99.90
47765;DHT22;33529;49.242;8.670;2023-04-01T07:23:26;9.00;99.90
47765;DHT22;33529;49.242;8.670;2023-04-01T07:26:23;9.00;99.90
47765;DHT22;33529;49.242;8.670;2023-04-01T07:29:14;9.00;99.90
47765;DHT22;33529;49.242;8.670;2023-04-01T07:31:55;9.10;99.90
47765;DHT22;33529;49.242;8.670;2023-04-01T07:34:28;9.20;99.90
47765;DHT22;33529;49.242;8.670;2023-04-01T07:39:38;9.20;99.90
47765;DHT22;33529;49.242;8.670;2023-04-01T07:42:36;9.20;99.90
47765;DHT22;33529;49.242;8.670;2023-04-01T07:45:18;9.20;99.90
47765;DHT22;33529;49.242;8.670;2023-04-01T07:47:52;9.20;99.90
47765;DHT22;33529;49.242;8.670;2023-04-01T07:50:47;9.20;99.90
47765;DHT22;33529;49.242;8.670;2023-04-01T07:56:15;9.40;99.90
47765;DHT22;33529;49.242;8.670;2023-04-01T07:59:02;9.40;99.90
47765;DHT22;33529;49.242;8.670;2023-04-01T08:02:25;9.40;99.90
47765;DHT22;33529;49.242;8.670;2023-04-01T08:05:16;9.40;99.90
47765;DHT22;33529;49.242;8.670;2023-04-01T08:14:21;9.40;99.90
47765;DHT22;33529;49.242;8.670;2023-04-01T08:17:36;9.40;99.90
47765;DHT22;33529;49.242;8.670;2023-04-01T08:23:17;9.40;99.90
47765;DHT22;33529;49.242;8.670;2023-04-01T08:26:32;9.40;99.90
47765;DHT22;33529;49.242;8.670;2023-04-01T08:29:04;9.50;99.90
47765;DHT22;33529;49.242;8.670;2023-04-01T08:31:55;9.50;99.90
47765;DHT22;33529;49.242;8.670;2023-04-01T08:34:40;9.60;99.90
47765;DHT22;33529;49.242;8.670;2023-04-01T08:37:28;9.60;99.90
47765;DHT22;33529;49.242;8.670;2023-04-01T08:40:02;9.60;99.90
47765;DHT22;33529;49.242;8.670;2023-04-01T08:48:57;9.50;99.90
47765;DHT22;33529;49.242;8.670;2023-04-01T08:54:30;9.60;99.90
47765;DHT22;33529;49.242;8.670;2023-04-01T09:03:22;9.70;99.90
47765;DHT22;33529;49.242;8.670;2023-04-01T09:15:12;9.70;99.90
47765;DHT22;33529;49.242;8.670;2023-04-01T09:20:31;9.90;99.90
47765;DHT22;33529;49.242;8.670;2023-04-01T09:25:41;9.90;99.90
47765;DHT22;33529;49.242;8.670;2023-04-01T09:33:37;10.00;99.90
47765;DHT22;33529;49.242;8.670;2023-04-01T09:36:25;10.10;99.90
47765;DHT22;33529;49.242;8.670;2023-04-01T09:45:07;10.40;99.90
47765;DHT22;33529;49.242;8.670;2023-04-01T09:50:45;10.30;99.90
47765;DHT22;33529;49.242;8.670;2023-04-01T09:56:18;10.30;99.90
47765;DHT22;33529;49.242;8.670;2023-04-01T09:59:32;10.30;99.90
47765;DHT22;33529;49.242;8.670;2023-04-01T10:02:47;10.40;99.90
47765;DHT22;33529;49.242;8.670;2023-04-01T10:08:48;10.40;99.90
47765;DHT22;33529;49.242;8.670;2023-04-01T10:11:40;10.40;99.90
47765;DHT22;33529;49.242;8.670;2023-04-01T10:14:23;10.40;99.90
47765;DHT22;33529;49.242;8.670;2023-04-01T10:17:00;10.40;99.90
47765;DHT22;33529;49.242;8.670;2023-04-01T10:22:55;10.40;99.90
47765;DHT22;33529;49.242;8.670;2023-04-01T10:34:45;10.50;99.90
47765;DHT22;33529;49.242;8.670;2023-04-01T10:40:25;10.50;99.90
47765;DHT22;33529;49.242;8.670;2023-04-01T11:38:39;10.70;99.90
47765;DHT22;33529;49.242;8.670;2023-04-01T11:44:55;10.80;99.90
47765;DHT22;33529;49.242;8.670;2023-04-01T11:48:18;10.90;99.90
47765;DHT22;33529;49.242;8.670;2023-04-01T11:56:13;10.90;99.90
47765;DHT22;33529;49.242;8.670;2023-04-01T12:04:38;10.90;99.90
47765;DHT22;33529;49.242;8.670;2023-04-01T12:08:04;11.00;99.90
47765;DHT22;33529;49.242;8.670;2023-04-01T12:10:24;10.90;99.90
47765;DHT22;33529;49.242;8.670;2023-04-01T12:16:30;11.10;99.90
47765;DHT22;33529;49.242;8.670;2023-04-01T12:18:50;11.00;99.90
47765;DHT22;33529;49.242;8.670;2023-04-01T12:21:38;11.00;99.90
47765;DHT22;33529;49.242;8.670;2023-04-01T12:24:25;10.90;99.90
47765;DHT22;33529;49.242;8.670;2023-04-01T12:27:15;10.90;99.90
47765;DHT22;33529;49.242;8.670;2023-04-01T12:29:59;10.90;99.90
47765;DHT22;33529;49.242;8.670;2023-04-01T12:41:03;10.90;99.90
47765;DHT22;33529;49.242;8.670;2023-04-01T12:49:13;11.20;99.90
47765;DHT22;33529;49.242;8.670;2023-04-01T12:57:13;11.30;99.90
47765;DHT22;33529;49.242;8.670;2023-04-01T13:05:11;11.40;99.90
47765;DHT22;33529;49.242;8.670;2023-04-01T13:08:24;11.40;99.90
47765;DHT22;33529;49.242;8.670;2023-04-01T13:14:21;11.50;99.90
47765;DHT22;33529;49.242;8.670;2023-04-01T13:17:02;11.50;99.90
47765;DHT22;33529;49.242;8.670;2023-04-01T13:19:47;11.50;99.90
47765;DHT22;33529;49.242;8.670;2023-04-01T13:28:43;11.30;99.90
47765;DHT22;33529;49.242;8.670;2023-04-01T13:36:37;11.50;99.90
47765;DHT22;33529;49.242;8.670;2023-04-01T13:42:08;11.50;99.90
47765;DHT22;33529;49.242;8.670;2023-04-01T13:44:46;11.50;99.90
47765;DHT22;33529;49.242;8.670;2023-04-01T13:50:23;11.40;99.90
47765;DHT22;33529;49.242;8.670;2023-04-01T13:58:48;11.00;99.90
47765;DHT22;33529;49.242;8.670;2023-04-01T14:04:38;11.00;99.90
47765;DHT22;33529;49.242;8.670;2023-04-01T14:20:40;11.40;99.90
47765;DHT22;33529;49.242;8.670;2023-04-01T14:29:29;11.50;99.90
47765;DHT22;33529;49.242;8.670;2023-04-01T14:35:11;11.70;99.90
47765;DHT22;33529;49.242;8.670;2023-04-01T14:37:58;11.60;99.90
47765;DHT22;33529;49.242;8.670;2023-04-01T14:43:45;11.50;99.90
47765;DHT22;33529;49.242;8.670;2023-04-01T14:46:27;11.40;99.90
47765;DHT22;33529;49.242;8.670;2023-04-01T14:49:37;11.50;99.90
47765;DHT22;33529;49.242;8.670;2023-04-01T14:54:37;11.40;99.90
47765;DHT22;33529;49.242;8.670;2023-04-01T14:57:24;11.40;99.90
47765;DHT22;33529;49.242;8.670;2023-04-01T15:00:17;11.40;99.90
47765;DHT22;33529;49.242;8.670;2023-04-01T15:03:07;11.40;99.90
47765;DHT22;33529;49.242;8.670;2023-04-01T15:05:50;11.40;99.90
47765;DHT22;33529;49.242;8.670;2023-04-01T15:08:26;11.30;99.90
47765;DHT22;33529;49.242;8.670;2023-04-01T15:11:15;11.20;99.90
47765;DHT22;33529;49.242;8.670;2023-04-01T15:19:51;11.40;99.90
47765;DHT22;33529;49.242;8.670;2023-04-01T15:25:43;11.50;99.90
47765;DHT22;33529;49.242;8.670;2023-04-01T15:28:36;11.30;99.90
47765;DHT22;33529;49.242;8.670;2023-04-01T15:31:15;11.30;99.90
47765;DHT22;33529;49.242;8.670;2023-04-01T15:34:21;11.30;99.90
47765;DHT22;33529;49.242;8.670;2023-04-01T15:36:59;11.30;99.90
47765;DHT22;33529;49.242;8.670;2023-04-01T15:45:18;11.30;99.90
47765;DHT22;33529;49.242;8.670;2023-04-01T15:48:01;11.30;99.90
47765;DHT22;33529;49.242;8.670;2023-04-01T15:56:06;11.40;99.90
47765;DHT22;33529;49.242;8.670;2023-04-01T16:12:15;11.30;99.90
47765;DHT22;33529;49.242;8.670;2023-04-01T16:14:56;11.30;99.90
47765;DHT22;33529;49.242;8.670;2023-04-01T16:18:17;11.20;99.90
47765;DHT22;33529;49.242;8.670;2023-04-01T16:26:38;11.10;99.90
47765;DHT22;33529;49.242;8.670;2023-04-01T16:32:29;11.10;99.90
47765;DHT22;33529;49.242;8.670;2023-04-01T16:35:25;11.00;99.90
47765;DHT22;33529;49.242;8.670;2023-04-01T16:38:03;10.90;99.90
47765;DHT22;33529;49.242;8.670;2023-04-01T16:40:37;10.90;99.90
47765;DHT22;33529;49.242;8.670;2023-04-01T16:43:15;10.80;99.90
47765;DHT22;33529;49.242;8.670;2023-04-01T16:54:51;10.80;99.90
47765;DHT22;33529;49.242;8.670;2023-04-01T17:00:10;10.90;99.90
47765;DHT22;33529;49.242;8.670;2023-04-01T17:02:46;10.90;99.90
47765;DHT22;33529;49.242;8.670;2023-04-01T17:05:14;10.90;99.90
47765;DHT22;33529;49.242;8.670;2023-04-01T17:08:07;10.90;99.90
47765;DHT22;33529;49.242;8.670;2023-04-01T17:16:27;10.80;99.90
47765;DHT22;33529;49.242;8.670;2023-04-01T17:19:05;10.90;99.90
47765;DHT22;33529;49.242;8.670;2023-04-01T17:24:45;10.70;99.90
47765;DHT22;33529;49.242;8.670;2023-04-01T17:35:44;10.50;99.90
47765;DHT22;33529;49.242;8.670;2023-04-01T17:44:01;10.30;99.90
47765;DHT22;33529;49.242;8.670;2023-04-01T17:46:50;10.20;99.90
47765;DHT22;33529;49.242;8.670;2023-04-01T17:52:13;10.10;99.90
47765;DHT22;33529;49.242;8.670;2023-04-01T17:55:15;10.10;99.90
47765;DHT22;33529;49.242;8.670;2023-04-01T18:01:06;9.90;99.90
47765;DHT22;33529;49.242;8.670;2023-04-01T18:04:02;9.90;99.90
47765;DHT22;33529;49.242;8.670;2023-04-01T18:12:21;9.70;99.90
47765;DHT22;33529;49.242;8.670;2023-04-01T18:24:40;9.60;99.90
47765;DHT22;33529;49.242;8.670;2023-04-01T18:27:00;9.60;99.90
47765;DHT22;33529;49.242;8.670;2023-04-01T18:38:35;9.50;99.90
47765;DHT22;33529;49.242;8.670;2023-04-01T18:55:46;9.50;99.90
47765;DHT22;33529;49.242;8.670;2023-04-01T19:06:08;9.50;99.90
47765;DHT22;33529;49.242;8.670;2023-04-01T19:09:52;9.50;99.90
47765;DHT22;33529;49.242;8.670;2023-04-01T19:18:02;9.50;99.90
47765;DHT22;33529;49.242;8.670;2023-04-01T19:23:50;9.50;99.90
47765;DHT22;33529;49.242;8.670;2023-04-01T19:26:33;9.50;99.90
47765;DHT22;33529;49.242;8.670;2023-04-01T19:29:12;9.40;99.90
47765;DHT22;33529;49.242;8.670;2023-04-01T19:34:58;9.50;99.90
47765;DHT22;33529;49.242;8.670;2023-04-01T19:37:39;9.50;99.90
47765;DHT22;33529;49.242;8.670;2023-04-01T19:43:03;9.50;99.90
47765;DHT22;33529;49.242;8.670;2023-04-01T19:51:06;9.50;99.90
47765;DHT22;33529;49.242;8.670;2023-04-01T19:53:51;9.40;99.90
47765;DHT22;33529;49.242;8.670;2023-04-01T19:56:22;9.50;99.90
47765;DHT22;33529;49.242;8.670;2023-04-01T19:59:03;9.50;99.90
47765;DHT22;33529;49.242;8.670;2023-04-01T20:01:40;9.40;99.90
47765;DHT22;33529;49.242;8.670;2023-04-01T20:04:29;9.40;99.90
47765;DHT22;33529;49.242;8.670;2023-04-01T20:07:07;9.40;99.90
47765;DHT22;33529;49.242;8.670;2023-04-01T20:12:44;9.30;99.90
47765;DHT22;33529;49.242;8.670;2023-04-01T20:15:37;9.20;99.90
47765;DHT22;33529;49.242;8.670;2023-04-01T20:18:19;9.10;99.90
47765;DHT22;33529;49.242;8.670;2023-04-01T20:22:04;9.10;99.90
47765;DHT22;33529;49.242;8.670;2023-04-01T20:26:49;9.10;99.90
47765;DHT22;33529;49.242;8.670;2023-04-01T20:30:12;9.10;99.90
47765;DHT22;33529;49.242;8.670;2023-04-01T20:36:04;9.20;99.90
47765;DHT22;33529;49.242;8.670;2023-04-01T20:41:27;9.10;99.90
47765;DHT22;33529;49.242;8.670;2023-04-01T20:44:08;9.10;99.90
47765;DHT22;33529;49.242;8.670;2023-04-01T21:01:11;9.10;99.90
47765;DHT22;33529;49.242;8.670;2023-04-01T21:06:58;9.10;99.90
47765;DHT22;33529;49.242;8.670;2023-04-01T21:12:12;9.10;99.90
47765;DHT22;33529;49.242;8.670;2023-04-01T21:23:31;9.10;99.90
47765;DHT22;33529;49.242;8.670;2023-04-01T21:26:23;9.10;99.90
47765;DHT22;33529;49.242;8.670;2023-04-01T21:37:26;9.10;99.90
47765;DHT22;33529;49.242;8.670;2023-04-01T21:40:39;9.10;99.90
47765;DHT22;33529;49.242;8.670;2023-04-01T21:49:34;9.10;99.90
47765;DHT22;33529;49.242;8.670;2023-04-01T21:52:30;9.10;99.90
47765;DHT22;33529;49.242;8.670;2023-04-01T22:08:56;9.00;99.90
47765;DHT22;33529;49.242;8.670;2023-04-01T22:14:15;9.00;99.90
47765;DHT22;33529;49.242;8.670;2023-04-01T22:16:57;9.00;99.90
47765;DHT22;33529;49.242;8.670;2023-04-01T22:19:57;9.00;99.90
47765;DHT22;33529;49.242;8.670;2023-04-01T22:26:04;9.00;99.90
47765;DHT22;33529;49.242;8.670;2023-04-01T22:31:00;8.90;99.90
47765;DHT22;33529;49.242;8.670;2023-04-01T22:42:17;8.90;99.90
47765;DHT22;33529;49.242;8.670;2023-04-01T22:48:14;8.90;99.90
47765;DHT22;33529;49.242;8.670;2023-04-01T22:50:54;8.90;99.90
47765;DHT22;33529;49.242;8.670;2023-04-01T22:53:55;8.90;99.90
47765;DHT22;33529;49.242;8.670;2023-04-01T22:56:55;8.90;99.90
47765;DHT22;33529;49.242;8.670;2023-04-01T22:59:37;8.90;99.90
47765;DHT22;33529;49.242;8.670;2023-04-01T23:02:21;9.00;99.90
47765;DHT22;33529;49.242;8.670;2023-04-01T23:04:54;8.90;99.90
47765;DHT22;33529;49.242;8.670;2023-04-01T23:07:41;8.90;99.90
47765;DHT22;33529;49.242;8.670;2023-04-01T23:12:49;8.90;99.90
47765;DHT22;33529;49.242;8.670;2023-04-01T23:15:18;8.80;99.90
47765;DHT22;33529;49.242;8.670;2023-04-01T23:18:09;8.80;99.90
47765;DHT22;33529;49.242;8.670;2023-04-01T23:21:10;8.90;99.90
47765;DHT22;33529;49.242;8.670;2023-04-01T23:26:55;8.90;99.90
47765;DHT22;33529;49.242;8.670;2023-04-01T23:29:26;8.90;99.90
47765;DHT22;33529;49.242;8.670;2023-04-01T23:31:59;8.90;99.90
47765;DHT22;33529;49.242;8.670;2023-04-01T23:34:28;8.90;99.90
47765;DHT22;33529;49.242;8.670;2023-04-01T23:37:02;9.00;99.90
47765;DHT22;33529;49.242;8.670;2023-04-01T23:39:36;8.90;99.90
47765;DHT22;33529;49.242;8.670;2023-04-01T23:42:27;8.90;99.90
47765;DHT22;33529;49.242;8.670;2023-04-01T23:45:03;8.90;99.90
47765;DHT22;33529;49.242;8.670;2023-04-01T23:47:35;8.90;99.90
47765;DHT22;33529;49.242;8.670;2023-04-01T23:50:09;8.80;99.90
47765;DHT22;33529;49.242;8.670;2023-04-01T23:52:47;8.80;99.90
47765;DHT22;33529;49.242;8.670;2023-04-01T23:55:39;8.80;99.90
47765;DHT22;33529;49.242;8.670;2023-04-01T23:58:26;8.80;99.90
